Time;durP1;ratioP1;P1;durP2;ratioP2;P2;SDS_P1;SDS_P2;PMS_P1;PMS_P2;Temp;Humidity;BMP_temperature;BMP_pressure;BME280_temperature;BME280_humidity;BME280_pressure;Samples;Min_cycle;Max_cycle;Signal;HPM_P1;HPM_P2
2021/06/02 00:00:16;;;;;;;4.63;2.30;;;;;;;;;;1455485;40;20509;-82
2021/06/02 00:01:20;;;;;;;2.55;1.70;;;;;;;;;;1458163;40;20775;-83
2021/06/02 00:02:22;;;;;;;11.05;2.33;;;;;;;;;;1461682;40;20435;-82
2021/06/02 00:03:30;;;;;;;5.03;2.20;;;;;;;;;;1457966;40;20570;-82
2021/06/02 00:04:47;;;;;;;5.10;1.83;;;;;;;;;;1454391;40;20473;-82
2021/06/02 00:05:53;;;;;;;5.47;2.37;;;;;;;;;;1459075;40;20412;-82
2021/06/02 00:07:04;;;;;;;3.38;2.08;;;;;;;;;;1462562;40;20429;-82
2021/06/02 00:08:10;;;;;;;5.40;2.40;;;;;;;;;;1461927;40;20409;-82
2021/06/02 00:09:13;;;;;;;4.95;2.50;;;;;;;;;;1462758;40;20510;-81
2021/06/02 00:10:17;;;;;;;3.13;2.28;;;;;;;;;;1457799;40;20458;-79
2021/06/02 00:11:20;;;;;;;4.43;2.28;;;;;;;;;;1457937;40;20538;-81
2021/06/02 00:12:22;;;;;;;4.32;1.98;;;;;;;;;;1462391;40;20434;-82
2021/06/02 00:13:24;;;;;;;2.60;2.33;;;;;;;;;;1461912;40;20405;-81
2021/06/02 00:14:27;;;;;;;3.63;2.03;;;;;;;;;;1457077;40;20482;-83
2021/06/02 00:15:28;;;;;;;3.92;2.17;;;;;;;;;;1455187;40;20416;-82
2021/06/02 00:16:30;;;;;;;5.28;2.25;;;;;;;;;;1456548;40;20590;-80
2021/06/02 00:17:33;;;;;;;4.88;2.30;;;;;;;;;;1458201;40;20497;-83
2021/06/02 00:18:36;;;;;;;5.43;2.10;;;;;;;;;;1454078;40;20446;-82
2021/06/02 00:19:38;;;;;;;3.40;2.40;;;;;;;;;;1458083;40;21194;-83
2021/06/02 00:20:39;;;;;;;2.10;1.90;;;;;;;;;;1457565;40;20418;-83
2021/06/02 00:21:41;;;;;;;5.22;2.22;;;;;;;;;;1454330;40;20423;-83
2021/06/02 00:22:44;;;;;;;2.47;2.28;;;;;;;;;;1454248;40;20428;-83
2021/06/02 00:23:46;;;;;;;4.65;2.42;;;;;;;;;;1458130;40;20411;-82
2021/06/02 00:24:48;;;;;;;5.80;2.30;;;;;;;;;;1457691;40;20573;-83
2021/06/02 00:25:50;;;;;;;4.97;2.22;;;;;;;;;;1461687;40;20482;-82
2021/06/02 00:26:57;;;;;;;3.88;2.10;;;;;;;;;;1457828;40;20982;-83
2021/06/02 00:27:59;;;;;;;2.83;2.05;;;;;;;;;;1458647;40;20411;-83
2021/06/02 00:29:04;;;;;;;4.80;2.15;;;;;;;;;;1462142;40;20417;-83
2021/06/02 00:30:09;;;;;;;3.95;2.30;;;;;;;;;;1460230;40;20437;-83
2021/06/02 00:31:11;;;;;;;3.90;2.25;;;;;;;;;;1462030;40;20420;-82
2021/06/02 00:32:14;;;;;;;7.85;2.53;;;;;;;;;;1453464;40;20499;-83
2021/06/02 00:33:16;;;;;;;6.13;2.92;;;;;;;;;;1450299;40;20410;-81
2021/06/02 00:34:19;;;;;;;5.35;2.25;;;;;;;;;;1462135;40;20429;-81
2021/06/02 00:35:21;;;;;;;3.33;2.13;;;;;;;;;;1465807;40;20427;-83
2021/06/02 00:36:23;;;;;;;6.90;3.03;;;;;;;;;;1462025;40;20934;-82
2021/06/02 00:37:25;;;;;;;6.55;2.30;;;;;;;;;;1462292;40;20434;-83
2021/06/02 00:38:27;;;;;;;4.78;2.35;;;;;;;;;;1465199;40;20665;-82
2021/06/02 00:39:28;;;;;;;4.07;2.17;;;;;;;;;;1466676;40;22418;-83
2021/06/02 00:40:37;;;;;;;3.67;2.25;;;;;;;;;;1466567;40;20407;-83
2021/06/02 00:41:41;;;;;;;3.67;2.30;;;;;;;;;;1461410;40;20537;-83
2021/06/02 00:42:44;;;;;;;2.92;2.38;;;;;;;;;;1462272;40;20842;-84
2021/06/02 00:43:47;;;;;;;3.80;2.47;;;;;;;;;;1465887;40;20530;-81
2021/06/02 00:44:50;;;;;;;2.15;1.95;;;;;;;;;;1462512;40;20421;-83
2021/06/02 00:45:53;;;;;;;5.25;2.67;;;;;;;;;;1458411;40;20973;-83
2021/06/02 00:47:00;;;;;;;3.85;2.15;;;;;;;;;;1462091;40;20401;-84
2021/06/02 00:48:03;;;;;;;3.53;2.08;;;;;;;;;;1463160;40;20469;-83
2021/06/02 00:49:21;;;;;;;4.50;2.72;;;;;;;;;;1463457;40;20698;-84
2021/06/02 00:50:24;;;;;;;2.65;2.25;;;;;;;;;;1463370;40;21373;-84
2021/06/02 00:51:26;;;;;;;2.43;2.03;;;;;;;;;;1463748;40;20537;-83
2021/06/02 00:52:28;;;;;;;3.25;2.45;;;;;;;;;;1462505;40;20413;-83
2021/06/02 00:53:29;;;;;;;2.45;2.25;;;;;;;;;;1458164;40;20493;-83
2021/06/02 00:54:32;;;;;;;3.20;2.57;;;;;;;;;;1458318;40;20615;-82
2021/06/02 00:55:34;;;;;;;8.00;3.53;;;;;;;;;;1458034;40;20462;-84
2021/06/02 00:56:39;;;;;;;5.80;2.67;;;;;;;;;;1457943;40;20446;-84
2021/06/02 00:57:47;;;;;;;6.20;2.72;;;;;;;;;;1458837;40;20470;-82
2021/06/02 00:58:51;;;;;;;3.10;2.17;;;;;;;;;;1462771;40;20512;-83
2021/06/02 01:00:09;;;;;;;2.90;2.50;;;;;;;;;;1460394;40;20875;-83
2021/06/02 01:01:10;;;;;;;6.60;2.60;;;;;;;;;;1458027;40;21213;-83
2021/06/02 01:02:17;;;;;;;2.60;2.20;;;;;;;;;;1453028;40;20397;-84
2021/06/02 01:03:23;;;;;;;3.78;2.30;;;;;;;;;;1457236;40;20507;-82
2021/06/02 01:04:28;;;;;;;3.53;2.72;;;;;;;;;;1454888;40;20534;-83
2021/06/02 01:05:30;;;;;;;5.13;2.50;;;;;;;;;;1457950;40;20402;-84
2021/06/02 01:06:34;;;;;;;3.80;2.30;;;;;;;;;;1462425;40;20947;-84
2021/06/02 01:07:38;;;;;;;5.30;2.38;;;;;;;;;;1462713;40;20878;-84
2021/06/02 01:08:43;;;;;;;2.70;2.30;;;;;;;;;;1462574;40;20505;-84
2021/06/02 01:09:48;;;;;;;3.78;2.15;;;;;;;;;;1457973;40;20455;-84
2021/06/02 01:10:51;;;;;;;5.00;2.50;;;;;;;;;;1458538;40;20415;-84
2021/06/02 01:11:53;;;;;;;2.47;2.28;;;;;;;;;;1462214;40;20409;-84
2021/06/02 01:12:58;;;;;;;3.88;2.70;;;;;;;;;;1462181;40;20448;-84
2021/06/02 01:14:02;;;;;;;4.07;2.40;;;;;;;;;;1462535;40;20428;-83
2021/06/02 01:15:04;;;;;;;3.28;2.30;;;;;;;;;;1457300;40;20506;-82
2021/06/02 01:16:07;;;;;;;4.13;2.20;;;;;;;;;;1454071;40;20468;-83
2021/06/02 01:17:13;;;;;;;2.33;2.20;;;;;;;;;;1457170;40;20892;-82
2021/06/02 01:18:16;;;;;;;4.63;2.63;;;;;;;;;;1462554;40;20760;-82
2021/06/02 01:19:22;;;;;;;3.00;2.45;;;;;;;;;;1462420;40;20445;-81
2021/06/02 01:20:27;;;;;;;2.30;2.10;;;;;;;;;;1462056;40;20429;-83
2021/06/02 01:21:31;;;;;;;5.00;2.65;;;;;;;;;;1462326;40;20433;-82
2021/06/02 01:22:34;;;;;;;4.53;2.63;;;;;;;;;;1462175;40;20413;-82
2021/06/02 01:23:36;;;;;;;5.15;2.80;;;;;;;;;;1462089;40;20408;-82
2021/06/02 01:24:38;;;;;;;4.32;2.75;;;;;;;;;;1454024;40;20448;-83
2021/06/02 01:25:42;;;;;;;3.40;2.45;;;;;;;;;;1458158;40;20450;-82
2021/06/02 01:26:45;;;;;;;4.82;2.70;;;;;;;;;;1462597;40;20524;-82
2021/06/02 01:27:46;;;;;;;3.15;2.55;;;;;;;;;;1461212;40;20545;-82
2021/06/02 01:28:48;;;;;;;2.60;2.40;;;;;;;;;;1457777;40;20804;-82
2021/06/02 01:29:50;;;;;;;4.32;2.90;;;;;;;;;;1455375;40;20423;-82
2021/06/02 01:30:53;;;;;;;5.00;2.75;;;;;;;;;;1458967;40;20550;-82
2021/06/02 01:32:44;;;;;;;5.18;2.92;;;;;;;;;;1456322;40;20433;-82
2021/06/02 01:34:11;;;;;;;4.57;2.75;;;;;;;;;;1461493;40;20409;-83
2021/06/02 01:35:31;;;;;;;3.70;2.78;;;;;;;;;;1462528;40;20402;-83
2021/06/02 01:36:44;;;;;;;4.38;3.10;;;;;;;;;;1458547;40;20477;-82
2021/06/02 01:38:04;;;;;;;3.92;2.80;;;;;;;;;;1458238;40;20415;-83
2021/06/02 01:39:28;;;;;;;3.20;2.72;;;;;;;;;;1458489;40;20879;-83
2021/06/02 01:40:54;;;;;;;3.83;3.00;;;;;;;;;;1457642;40;20479;-83
2021/06/02 01:42:19;;;;;;;5.30;2.88;;;;;;;;;;1455440;40;20455;-83
2021/06/02 01:43:50;;;;;;;5.07;2.90;;;;;;;;;;1459626;40;20409;-82
2021/06/02 01:45:10;;;;;;;4.40;2.88;;;;;;;;;;1460403;40;20408;-83
2021/06/02 01:46:30;;;;;;;4.57;3.40;;;;;;;;;;1462409;40;20480;-83
2021/06/02 01:48:00;;;;;;;3.75;3.42;;;;;;;;;;1458981;40;20510;-83
2021/06/02 01:49:20;;;;;;;3.10;2.90;;;;;;;;;;1459114;40;20442;-82
2021/06/02 01:51:04;;;;;;;5.78;2.63;;;;;;;;;;1462148;40;20525;-81
2021/06/02 01:52:30;;;;;;;5.13;2.90;;;;;;;;;;1466258;40;20501;-82
2021/06/02 01:53:43;;;;;;;6.53;3.42;;;;;;;;;;1463375;40;20410;-81
2021/06/02 01:54:51;;;;;;;3.95;3.17;;;;;;;;;;1463473;40;20407;-82
2021/06/02 01:56:14;;;;;;;7.25;3.63;;;;;;;;;;1463021;40;20416;-82
2021/06/02 01:57:18;;;;;;;7.68;3.65;;;;;;;;;;1462913;40;20938;-82
2021/06/02 01:58:53;;;;;;;6.03;3.83;;;;;;;;;;1462021;40;20431;-82
2021/06/02 02:00:10;;;;;;;4.93;3.40;;;;;;;;;;1459286;40;20733;-82
2021/06/02 02:01:40;;;;;;;5.90;3.90;;;;;;;;;;1462999;40;20400;-83
2021/06/02 02:03:37;;;;;;;4.97;4.10;;;;;;;;;;1462089;40;20526;-83
2021/06/02 02:04:58;;;;;;;8.32;4.15;;;;;;;;;;1445401;41;20686;-83
2021/06/02 02:06:49;;;;;;;6.63;4.25;;;;;;;;;;1445956;40;20416;-82
2021/06/02 02:08:11;;;;;;;5.13;4.63;;;;;;;;;;1445086;41;20436;-82
2021/06/02 02:09:39;;;;;;;5.95;4.43;;;;;;;;;;1445352;41;20500;-82
2021/06/02 02:10:47;;;;;;;9.48;4.97;;;;;;;;;;1441599;41;20500;-82
2021/06/02 02:11:50;;;;;;;5.70;4.00;;;;;;;;;;1442145;41;20578;-83
2021/06/02 02:13:00;;;;;;;4.90;4.40;;;;;;;;;;1444892;41;20422;-82
2021/06/02 02:14:39;;;;;;;5.40;4.87;;;;;;;;;;1454404;40;20890;-83
2021/06/02 02:16:17;;;;;;;6.72;5.30;;;;;;;;;;1457796;40;20474;-83
2021/06/02 02:17:46;;;;;;;5.35;4.85;;;;;;;;;;1452920;40;20517;-83
2021/06/02 02:19:14;;;;;;;7.68;4.88;;;;;;;;;;1456011;40;20796;-82
2021/06/02 02:20:28;;;;;;;5.80;4.80;;;;;;;;;;1458281;40;20640;-82
2021/06/02 02:22:11;;;;;;;7.60;5.70;;;;;;;;;;1457504;40;20573;-83
2021/06/02 02:23:32;;;;;;;7.00;5.35;;;;;;;;;;1460911;40;20524;-82
2021/06/02 02:24:47;;;;;;;5.68;5.13;;;;;;;;;;1462426;40;20424;-83
2021/06/02 02:26:03;;;;;;;6.75;5.72;;;;;;;;;;1462245;40;20390;-83
2021/06/02 02:27:34;;;;;;;9.30;6.07;;;;;;;;;;1462529;40;20416;-82
2021/06/02 02:28:47;;;;;;;7.05;5.47;;;;;;;;;;1457676;40;20435;-83
2021/06/02 02:30:04;;;;;;;6.75;5.97;;;;;;;;;;1455992;40;20444;-81
2021/06/02 02:31:43;;;;;;;8.80;6.25;;;;;;;;;;1458394;40;20507;-83
2021/06/02 02:32:54;;;;;;;8.90;6.53;;;;;;;;;;1458239;40;20456;-83
2021/06/02 02:34:05;;;;;;;10.20;6.88;;;;;;;;;;1457910;40;20442;-82
2021/06/02 02:35:46;;;;;;;7.40;6.22;;;;;;;;;;1458355;40;20523;-83
2021/06/02 02:36:52;;;;;;;8.75;6.45;;;;;;;;;;1445485;41;20565;-83
2021/06/02 02:38:22;;;;;;;8.25;6.45;;;;;;;;;;1445407;41;20883;-83
2021/06/02 02:39:30;;;;;;;7.10;6.40;;;;;;;;;;1454763;40;20418;-82
2021/06/02 02:40:46;;;;;;;9.43;6.72;;;;;;;;;;1458135;40;20436;-83
2021/06/02 02:42:03;;;;;;;8.80;6.88;;;;;;;;;;1458078;40;20450;-83
2021/06/02 02:43:11;;;;;;;7.97;7.28;;;;;;;;;;1462913;40;20869;-83
2021/06/02 02:44:28;;;;;;;10.85;6.93;;;;;;;;;;1463092;40;20451;-84
2021/06/02 02:45:41;;;;;;;9.68;6.88;;;;;;;;;;1460783;40;20443;-83
2021/06/02 02:46:58;;;;;;;10.95;7.63;;;;;;;;;;1457575;40;20550;-84
2021/06/02 02:48:15;;;;;;;8.48;7.57;;;;;;;;;;1459009;40;20481;-83
2021/06/02 02:49:26;;;;;;;10.00;6.88;;;;;;;;;;1462324;40;20429;-83
2021/06/02 02:50:35;;;;;;;9.63;7.73;;;;;;;;;;1462392;40;20492;-82
2021/06/02 02:52:08;;;;;;;10.40;7.47;;;;;;;;;;1462250;40;20440;-83
2021/06/02 02:53:18;;;;;;;8.73;7.55;;;;;;;;;;1462220;40;20464;-83
2021/06/02 02:54:27;;;;;;;13.63;7.95;;;;;;;;;;1464635;40;20418;-82
2021/06/02 02:55:35;;;;;;;9.30;7.95;;;;;;;;;;1465144;40;20407;-83
2021/06/02 02:56:53;;;;;;;14.55;8.30;;;;;;;;;;1465785;40;20388;-82
2021/06/02 02:58:14;;;;;;;11.95;8.07;;;;;;;;;;1466556;40;20391;-83
2021/06/02 02:59:22;;;;;;;10.60;9.00;;;;;;;;;;1465205;40;20477;-84
2021/06/02 03:00:33;;;;;;;10.15;8.25;;;;;;;;;;1459820;40;20804;-81
2021/06/02 03:01:42;;;;;;;15.02;8.77;;;;;;;;;;1460157;40;20502;-84
2021/06/02 03:02:49;;;;;;;11.77;8.48;;;;;;;;;;1462659;40;20461;-83
2021/06/02 03:04:13;;;;;;;9.95;8.52;;;;;;;;;;1462668;40;20460;-83
2021/06/02 03:05:24;;;;;;;12.07;8.55;;;;;;;;;;1462269;40;20498;-83
2021/06/02 03:06:44;;;;;;;12.75;8.63;;;;;;;;;;1460189;40;20439;-81
2021/06/02 03:07:49;;;;;;;14.65;9.07;;;;;;;;;;1458209;40;20437;-83
2021/06/02 03:09:14;;;;;;;10.27;9.18;;;;;;;;;;1464502;40;20401;-83
2021/06/02 03:10:18;;;;;;;11.15;9.02;;;;;;;;;;1467772;40;20407;-84
2021/06/02 03:11:31;;;;;;;12.07;8.55;;;;;;;;;;1467257;40;20569;-82
2021/06/02 03:12:58;;;;;;;11.48;9.70;;;;;;;;;;1466810;40;20469;-82
2021/06/02 03:14:02;;;;;;;10.03;8.93;;;;;;;;;;1466149;40;20558;-82
2021/06/02 03:15:18;;;;;;;10.80;9.10;;;;;;;;;;1460655;40;20460;-82
2021/06/02 03:16:29;;;;;;;12.57;9.00;;;;;;;;;;1459763;40;20770;-83
2021/06/02 03:18:01;;;;;;;11.47;9.30;;;;;;;;;;1462543;40;20857;-83
2021/06/02 03:19:15;;;;;;;16.65;9.90;;;;;;;;;;1458557;40;20446;-83
2021/06/02 03:20:32;;;;;;;11.50;9.82;;;;;;;;;;1458735;40;20435;-83
2021/06/02 03:22:01;;;;;;;14.93;9.80;;;;;;;;;;1463545;40;20759;-83
2021/06/02 03:23:11;;;;;;;13.60;9.95;;;;;;;;;;1459061;40;21143;-84
2021/06/02 03:24:17;;;;;;;12.15;9.45;;;;;;;;;;1458492;40;20478;-83
2021/06/02 03:25:30;;;;;;;14.35;10.23;;;;;;;;;;1462946;40;20893;-82
2021/06/02 03:26:40;;;;;;;17.30;10.77;;;;;;;;;;1466497;40;20539;-83
2021/06/02 03:28:14;;;;;;;11.98;9.25;;;;;;;;;;1466787;40;20463;-83
2021/06/02 03:29:27;;;;;;;12.23;10.00;;;;;;;;;;1465864;40;20419;-82
2021/06/02 03:30:43;;;;;;;13.05;10.98;;;;;;;;;;1459805;40;20419;-82
2021/06/02 03:31:58;;;;;;;11.50;9.95;;;;;;;;;;1456489;40;20418;-82
2021/06/02 03:33:12;;;;;;;13.07;10.00;;;;;;;;;;1458654;40;20791;-83
2021/06/02 03:34:26;;;;;;;13.05;9.85;;;;;;;;;;1463729;40;20437;-82
2021/06/02 03:35:50;;;;;;;11.30;10.05;;;;;;;;;;1465949;40;20395;-82
2021/06/02 03:37:11;;;;;;;12.27;9.85;;;;;;;;;;1462594;40;20860;-83
2021/06/02 03:38:43;;;;;;;11.43;9.85;;;;;;;;;;1458230;40;20430;-83
2021/06/02 03:39:48;;;;;;;14.63;10.40;;;;;;;;;;1456724;40;20761;-83
2021/06/02 03:41:00;;;;;;;13.38;10.27;;;;;;;;;;1458472;40;21131;-82
2021/06/02 03:42:39;;;;;;;11.25;9.70;;;;;;;;;;1462679;40;20944;-83
2021/06/02 03:43:46;;;;;;;13.52;10.40;;;;;;;;;;1457954;40;20860;-83
2021/06/02 03:45:09;;;;;;;13.95;10.32;;;;;;;;;;1456806;40;20565;-82
2021/06/02 03:46:43;;;;;;;11.80;10.18;;;;;;;;;;1460807;40;20420;-82
2021/06/02 03:47:57;;;;;;;11.82;10.60;;;;;;;;;;1451843;40;20408;-84
2021/06/02 03:49:46;;;;;;;16.63;10.07;;;;;;;;;;1456916;40;20422;-83
2021/06/02 03:51:02;;;;;;;12.25;10.13;;;;;;;;;;1446064;41;20453;-82
2021/06/02 03:52:07;;;;;;;13.47;10.57;;;;;;;;;;1446496;41;20608;-82
2021/06/02 03:53:18;;;;;;;11.90;10.23;;;;;;;;;;1448735;41;20415;-83
2021/06/02 03:54:37;;;;;;;14.02;10.32;;;;;;;;;;1450781;41;20436;-82
2021/06/02 03:55:57;;;;;;;12.23;10.43;;;;;;;;;;1450566;41;20590;-81
2021/06/02 03:57:04;;;;;;;12.65;10.27;;;;;;;;;;1462830;40;20477;-83
2021/06/02 03:58:33;;;;;;;13.27;10.15;;;;;;;;;;1457423;40;20415;-82
2021/06/02 04:00:05;;;;;;;14.63;10.90;;;;;;;;;;1462058;40;20480;-83
2021/06/02 04:01:18;;;;;;;12.13;10.25;;;;;;;;;;1462700;40;20448;-83
2021/06/02 04:02:24;;;;;;;12.57;10.03;;;;;;;;;;1458841;40;20545;-82
2021/06/02 04:03:40;;;;;;;12.02;10.77;;;;;;;;;;1458735;40;20642;-83
2021/06/02 04:05:11;;;;;;;13.93;10.02;;;;;;;;;;1454158;40;20788;-83
2021/06/02 04:06:21;;;;;;;14.57;10.25;;;;;;;;;;1453766;40;20834;-83
2021/06/02 04:07:34;;;;;;;11.05;9.95;;;;;;;;;;1454777;40;20746;-83
2021/06/02 04:08:49;;;;;;;11.73;9.70;;;;;;;;;;1458424;40;20824;-83
2021/06/02 04:10:07;;;;;;;13.95;9.90;;;;;;;;;;1450200;40;20513;-83
2021/06/02 04:11:15;;;;;;;13.50;9.50;;;;;;;;;;1453177;40;20477;-83
2021/06/02 04:12:19;;;;;;;11.40;9.93;;;;;;;;;;1458766;40;20799;-82
2021/06/02 04:13:43;;;;;;;12.77;10.10;;;;;;;;;;1463380;40;20409;-82
2021/06/02 04:14:56;;;;;;;11.70;9.25;;;;;;;;;;1456459;40;21013;-83
2021/06/02 04:16:13;;;;;;;11.27;10.10;;;;;;;;;;1455036;40;20483;-83
2021/06/02 04:17:16;;;;;;;11.73;9.23;;;;;;;;;;1455605;40;20404;-83
2021/06/02 04:18:24;;;;;;;11.15;9.98;;;;;;;;;;1464738;40;20466;-83
2021/06/02 04:19:33;;;;;;;11.23;9.85;;;;;;;;;;1466858;40;20439;-82
2021/06/02 04:20:36;;;;;;;13.10;10.07;;;;;;;;;;1459726;40;20566;-81
2021/06/02 04:21:41;;;;;;;11.85;9.73;;;;;;;;;;1460534;40;20430;-83
2021/06/02 04:22:47;;;;;;;13.65;9.52;;;;;;;;;;1467795;40;20422;-83
2021/06/02 04:23:52;;;;;;;10.48;9.38;;;;;;;;;;1462805;40;20415;-82
2021/06/02 04:24:54;;;;;;;10.93;9.70;;;;;;;;;;1460169;40;20416;-81
2021/06/02 04:26:00;;;;;;;12.25;9.95;;;;;;;;;;1467795;40;20416;-82
2021/06/02 04:27:03;;;;;;;11.05;9.93;;;;;;;;;;1471950;40;20470;-81
2021/06/02 04:28:07;;;;;;;11.63;9.68;;;;;;;;;;1472259;40;20403;-84
2021/06/02 04:29:13;;;;;;;12.50;9.30;;;;;;;;;;1472274;40;20516;-84
2021/06/02 04:30:17;;;;;;;12.25;9.15;;;;;;;;;;1466857;40;20472;-83
2021/06/02 04:31:19;;;;;;;13.25;9.38;;;;;;;;;;1463426;40;20429;-83
2021/06/02 04:32:21;;;;;;;14.05;9.57;;;;;;;;;;1457654;40;20446;-83
2021/06/02 04:33:25;;;;;;;11.52;9.38;;;;;;;;;;1458353;40;20512;-84
2021/06/02 04:34:28;;;;;;;10.80;9.75;;;;;;;;;;1458426;40;20920;-84
2021/06/02 04:35:31;;;;;;;12.25;9.68;;;;;;;;;;1457909;40;20410;-83
2021/06/02 04:36:33;;;;;;;12.15;9.98;;;;;;;;;;1457216;40;20422;-82
2021/06/02 04:37:36;;;;;;;10.50;9.40;;;;;;;;;;1457859;40;20418;-83
2021/06/02 04:38:37;;;;;;;11.85;9.38;;;;;;;;;;1458307;40;20450;-84
2021/06/02 04:39:42;;;;;;;14.48;10.13;;;;;;;;;;1458254;40;20530;-84
2021/06/02 04:40:45;;;;;;;10.70;8.85;;;;;;;;;;1454457;40;20412;-85
2021/06/02 04:41:47;;;;;;;11.18;9.23;;;;;;;;;;1450417;40;20477;-83
2021/06/02 04:42:54;;;;;;;12.10;9.98;;;;;;;;;;1453976;40;20530;-84
2021/06/02 04:43:58;;;;;;;10.65;9.55;;;;;;;;;;1462226;40;20905;-84
2021/06/02 04:45:00;;;;;;;10.40;9.18;;;;;;;;;;1453916;40;20533;-84
2021/06/02 04:46:07;;;;;;;10.90;9.63;;;;;;;;;;1451967;40;20496;-83
2021/06/02 04:47:09;;;;;;;10.20;8.68;;;;;;;;;;1459925;40;20450;-84
2021/06/02 04:48:12;;;;;;;10.85;9.40;;;;;;;;;;1453970;40;20655;-84
2021/06/02 04:49:15;;;;;;;10.30;9.30;;;;;;;;;;1454711;40;20432;-83
2021/06/02 04:50:36;;;;;;;10.27;9.27;;;;;;;;;;1462093;40;20412;-85
2021/06/02 04:52:05;;;;;;;10.32;9.20;;;;;;;;;;1462269;40;20733;-84
2021/06/02 04:53:47;;;;;;;11.43;9.02;;;;;;;;;;1457929;40;20395;-83
2021/06/02 04:55:10;;;;;;;9.68;8.68;;;;;;;;;;1458062;40;20501;-85
2021/06/02 04:56:56;;;;;;;11.33;9.63;;;;;;;;;;1457211;40;20535;-84
2021/06/02 04:58:30;;;;;;;16.73;9.65;;;;;;;;;;1457863;40;20438;-84
2021/06/02 05:00:24;;;;;;;13.00;9.35;;;;;;;;;;1442503;41;20460;-82
2021/06/02 05:02:07;;;;;;;11.18;9.48;;;;;;;;;;1438962;40;20442;-85
2021/06/02 05:04:00;;;;;;;11.30;9.18;;;;;;;;;;1457429;40;20919;-84
2021/06/02 05:05:26;;;;;;;12.98;9.43;;;;;;;;;;1462553;40;20462;-84
2021/06/02 05:06:43;;;;;;;11.20;8.90;;;;;;;;;;1458136;40;20410;-84
2021/06/02 05:08:03;;;;;;;12.40;9.52;;;;;;;;;;1458304;40;20518;-85
2021/06/02 05:09:34;;;;;;;11.50;9.88;;;;;;;;;;1458388;40;20470;-83
2021/06/02 05:11:12;;;;;;;12.25;9.57;;;;;;;;;;1446064;40;20435;-82
2021/06/02 05:12:29;;;;;;;16.08;9.95;;;;;;;;;;1458211;40;20476;-84
2021/06/02 05:13:49;;;;;;;15.35;10.30;;;;;;;;;;1462300;40;20485;-84
2021/06/02 05:15:20;;;;;;;15.00;9.52;;;;;;;;;;1458352;40;20431;-85
2021/06/02 05:16:21;;;;;;;11.27;10.05;;;;;;;;;;1456951;40;20435;-85
2021/06/02 05:17:38;;;;;;;12.52;9.85;;;;;;;;;;1465543;40;20766;-82
2021/06/02 05:18:47;;;;;;;13.07;9.63;;;;;;;;;;1458941;40;20978;-84
2021/06/02 05:20:19;;;;;;;11.68;9.60;;;;;;;;;;1458651;40;20462;-83
2021/06/02 05:23:43;;;;;;;11.73;9.32;;;;;;;;;;1458376;40;20868;-85
2021/06/02 05:25:22;;;;;;;13.10;9.70;;;;;;;;;;1453155;40;20424;-83
2021/06/02 05:26:48;;;;;;;10.43;9.10;;;;;;;;;;1457781;40;20430;-84
2021/06/02 05:28:31;;;;;;;13.17;9.43;;;;;;;;;;1458058;40;20718;-84
2021/06/02 05:30:04;;;;;;;17.45;9.90;;;;;;;;;;1456950;40;20838;-84
2021/06/02 05:31:13;;;;;;;14.23;10.38;;;;;;;;;;1458463;40;20459;-83
2021/06/02 05:32:33;;;;;;;16.33;10.38;;;;;;;;;;1461440;40;20459;-82
2021/06/02 05:34:00;;;;;;;14.73;9.90;;;;;;;;;;1461605;40;20399;-82
2021/06/02 05:35:39;;;;;;;12.77;9.90;;;;;;;;;;1460764;40;20489;-85
2021/06/02 05:37:01;;;;;;;11.07;9.85;;;;;;;;;;1458140;40;20437;-84
2021/06/02 05:38:21;;;;;;;10.65;9.60;;;;;;;;;;1463793;40;20435;-85
2021/06/02 05:40:04;;;;;;;13.40;9.32;;;;;;;;;;1465954;40;20519;-85
2021/06/02 05:41:10;;;;;;;12.00;9.80;;;;;;;;;;1466778;40;20499;-84
2021/06/02 05:42:23;;;;;;;12.57;10.88;;;;;;;;;;1465945;40;20442;-83
2021/06/02 05:43:30;;;;;;;13.32;10.45;;;;;;;;;;1462010;40;20405;-83
2021/06/02 05:44:44;;;;;;;11.73;9.60;;;;;;;;;;1459724;40;20495;-84
2021/06/02 05:45:54;;;;;;;12.10;10.52;;;;;;;;;;1453821;40;20456;-84
2021/06/02 05:47:20;;;;;;;12.35;9.85;;;;;;;;;;1456919;40;20475;-84
2021/06/02 05:48:45;;;;;;;13.43;9.55;;;;;;;;;;1459529;40;20513;-83
2021/06/02 05:50:11;;;;;;;12.70;10.07;;;;;;;;;;1456909;40;20821;-83
2021/06/02 05:51:51;;;;;;;11.40;9.85;;;;;;;;;;1460267;40;20421;-83
2021/06/02 05:53:17;;;;;;;13.60;10.65;;;;;;;;;;1458800;40;20425;-84
2021/06/02 05:54:49;;;;;;;12.30;10.35;;;;;;;;;;1453998;40;20799;-83
2021/06/02 05:56:17;;;;;;;12.77;10.43;;;;;;;;;;1454258;40;20496;-82
2021/06/02 05:57:46;;;;;;;11.90;9.90;;;;;;;;;;1455843;40;20532;-84
2021/06/02 05:59:00;;;;;;;10.73;9.65;;;;;;;;;;1453849;40;20505;-83
2021/06/02 06:00:21;;;;;;;10.93;9.75;;;;;;;;;;1456591;40;20411;-83
2021/06/02 06:01:31;;;;;;;12.45;10.57;;;;;;;;;;1457744;40;20406;-84
2021/06/02 06:02:51;;;;;;;13.35;10.10;;;;;;;;;;1457879;40;20471;-85
2021/06/02 06:04:12;;;;;;;12.05;10.07;;;;;;;;;;1462625;40;20417;-84
2021/06/02 06:05:42;;;;;;;13.15;10.45;;;;;;;;;;1462665;40;20533;-85
2021/06/02 06:07:12;;;;;;;11.65;10.55;;;;;;;;;;1453415;40;20842;-83
2021/06/02 06:08:16;;;;;;;12.98;9.95;;;;;;;;;;1456126;40;20398;-83
2021/06/02 06:09:55;;;;;;;13.93;10.02;;;;;;;;;;1458291;40;20514;-84
2021/06/02 06:11:16;;;;;;;13.65;10.20;;;;;;;;;;1458995;40;21008;-83
2021/06/02 06:12:42;;;;;;;13.97;10.17;;;;;;;;;;1454614;40;20438;-84
2021/06/02 06:14:19;;;;;;;13.10;10.40;;;;;;;;;;1455880;40;20439;-83
2021/06/02 06:15:41;;;;;;;12.60;10.55;;;;;;;;;;1461292;40;20413;-84
2021/06/02 06:17:07;;;;;;;14.85;11.38;;;;;;;;;;1461711;40;20405;-83
2021/06/02 06:18:23;;;;;;;13.13;10.68;;;;;;;;;;1458349;40;20501;-83
2021/06/02 06:19:33;;;;;;;11.13;9.63;;;;;;;;;;1457940;40;20809;-83
2021/06/02 06:21:14;;;;;;;12.23;10.20;;;;;;;;;;1458687;40;20806;-82
2021/06/02 06:22:32;;;;;;;11.82;9.60;;;;;;;;;;1441241;41;20445;-82
2021/06/02 06:23:56;;;;;;;12.00;10.63;;;;;;;;;;1454756;40;20409;-82
2021/06/02 06:25:20;;;;;;;15.57;10.50;;;;;;;;;;1459524;40;20524;-82
2021/06/02 06:26:30;;;;;;;16.52;11.02;;;;;;;;;;1459680;40;20424;-82
2021/06/02 06:27:38;;;;;;;11.77;10.63;;;;;;;;;;1459086;40;20431;-82
2021/06/02 06:28:58;;;;;;;15.50;10.90;;;;;;;;;;1458498;40;20403;-81
2021/06/02 06:30:03;;;;;;;14.68;10.68;;;;;;;;;;1460485;40;20417;-82
2021/06/02 06:31:10;;;;;;;11.45;10.00;;;;;;;;;;1453980;40;20906;-86
2021/06/02 06:32:12;;;;;;;15.98;10.25;;;;;;;;;;1453690;40;20491;-85
2021/06/02 06:33:16;;;;;;;13.02;10.68;;;;;;;;;;1453891;40;20424;-86
2021/06/02 06:34:20;;;;;;;14.07;10.40;;;;;;;;;;1453696;40;20428;-87
2021/06/02 06:35:26;;;;;;;18.58;11.65;;;;;;;;;;1453446;40;20822;-85
2021/06/02 06:36:28;;;;;;;16.52;10.98;;;;;;;;;;1458381;40;20868;-84
2021/06/02 06:37:35;;;;;;;15.98;10.63;;;;;;;;;;1462393;40;20413;-84
2021/06/02 06:39:01;;;;;;;14.38;10.48;;;;;;;;;;1457877;40;21023;-83
2021/06/02 06:40:08;;;;;;;11.57;10.38;;;;;;;;;;1454397;40;20438;-82
2021/06/02 06:41:13;;;;;;;15.68;10.65;;;;;;;;;;1457165;40;20419;-82
2021/06/02 06:42:19;;;;;;;11.40;10.13;;;;;;;;;;1457502;40;20432;-82
2021/06/02 06:43:22;;;;;;;10.57;9.60;;;;;;;;;;1453789;40;20440;-83
2021/06/02 06:44:26;;;;;;;13.27;9.95;;;;;;;;;;1454162;40;20516;-84
2021/06/02 06:45:34;;;;;;;11.85;10.48;;;;;;;;;;1459908;40;20761;-86
2021/06/02 06:46:37;;;;;;;11.40;9.60;;;;;;;;;;1459434;40;20793;-85
2021/06/02 06:47:40;;;;;;;12.30;10.18;;;;;;;;;;1462206;40;20424;-83
2021/06/02 06:48:45;;;;;;;11.68;10.45;;;;;;;;;;1459476;40;20468;-82
2021/06/02 06:49:49;;;;;;;12.00;10.80;;;;;;;;;;1460442;40;20418;-83
2021/06/02 06:50:59;;;;;;;16.00;10.55;;;;;;;;;;1463722;40;20420;-82
2021/06/02 06:52:01;;;;;;;14.02;11.27;;;;;;;;;;1465258;40;20423;-81
2021/06/02 06:53:05;;;;;;;12.75;9.85;;;;;;;;;;1466089;40;20422;-83
2021/06/02 06:54:11;;;;;;;11.45;10.00;;;;;;;;;;1468618;40;20475;-83
2021/06/02 06:55:14;;;;;;;12.23;10.10;;;;;;;;;;1470422;40;20398;-82
2021/06/02 06:56:18;;;;;;;12.80;10.95;;;;;;;;;;1465844;40;20437;-81
2021/06/02 06:57:21;;;;;;;13.45;10.02;;;;;;;;;;1466331;40;20441;-81
2021/06/02 06:58:24;;;;;;;11.25;10.05;;;;;;;;;;1467073;40;20420;-82
2021/06/02 06:59:26;;;;;;;10.93;9.82;;;;;;;;;;1463103;40;20426;-82
2021/06/02 07:00:30;;;;;;;11.38;9.82;;;;;;;;;;1458717;40;20420;-83
2021/06/02 07:01:34;;;;;;;12.02;10.70;;;;;;;;;;1455572;40;20465;-83
2021/06/02 07:02:42;;;;;;;12.23;10.13;;;;;;;;;;1457234;40;20397;-82
2021/06/02 07:03:45;;;;;;;15.10;11.27;;;;;;;;;;1458064;40;20423;-83
2021/06/02 07:04:48;;;;;;;11.40;9.93;;;;;;;;;;1458503;40;20418;-83
2021/06/02 07:05:50;;;;;;;12.75;10.80;;;;;;;;;;1461742;40;20468;-83
2021/06/02 07:06:52;;;;;;;12.10;10.82;;;;;;;;;;1455755;40;20421;-83
2021/06/02 07:07:55;;;;;;;14.00;10.40;;;;;;;;;;1458017;40;20414;-83
2021/06/02 07:08:57;;;;;;;12.07;10.70;;;;;;;;;;1457638;40;20443;-83
2021/06/02 07:09:58;;;;;;;13.48;10.60;;;;;;;;;;1457385;40;20455;-84
2021/06/02 07:11:00;;;;;;;13.45;10.52;;;;;;;;;;1448808;40;21160;-82
2021/06/02 07:12:03;;;;;;;14.00;11.05;;;;;;;;;;1452907;40;20420;-83
2021/06/02 07:13:10;;;;;;;11.52;10.32;;;;;;;;;;1460338;40;21773;-82
2021/06/02 07:14:17;;;;;;;13.98;11.20;;;;;;;;;;1460161;40;20437;-82
2021/06/02 07:15:20;;;;;;;14.52;10.70;;;;;;;;;;1459006;40;20426;-82
2021/06/02 07:16:26;;;;;;;14.18;11.52;;;;;;;;;;1459513;40;20807;-81